<?xml version="1.0" encoding="UTF-8" standalone="no" ?>
<gpx xmlns="http://www.topografix.com/GPX/1/1" xmlns:xsi="http://www.w3.org/2001/XMLSchema-instance" xsi:schemaLocation="http://www.topografix.com/GPX/1/1 http://www.topografix.com/GPX/1/1/gpx.xsd" version="1.1" creator="VisuGPX - https://www.visugpx.com">
  <metadata>
    <name>Norvège</name>
  </metadata>
  <trk>
    <name><![CDATA[Tour d'Europe: étape 031 bis]]></name>
    <trkseg>
      <trkpt lat="61.76432" lon="5.25878">
        <ele>119.629022</ele>
        <time>2020-07-29T07:02:50.779Z</time>
      </trkpt>
      <trkpt lat="61.76312" lon="5.26265">
        <ele>104.728452</ele>
        <time>2020-07-29T07:03:32.820Z</time>
      </trkpt>
      <trkpt lat="61.76222" lon="5.26694">
        <ele>79.174311</ele>
        <time>2020-07-29T07:04:14.769Z</time>
      </trkpt>
      <trkpt lat="61.76239" lon="5.2719">
        <ele>70.746389</ele>
        <time>2020-07-29T07:05:09.779Z</time>
      </trkpt>
      <trkpt lat="61.76294" lon="5.27642">
        <ele>75.134222</ele>
        <time>2020-07-29T07:06:00.848Z</time>
      </trkpt>
      <trkpt lat="61.76421" lon="5.28064">
        <ele>71.361506</ele>
        <time>2020-07-29T07:06:50.812Z</time>
      </trkpt>
      <trkpt lat="61.76621" lon="5.28487">
        <ele>60.388164</ele>
        <time>2020-07-29T07:07:32.815Z</time>
      </trkpt>
      <trkpt lat="61.76767" lon="5.28874">
        <ele>56.386471</ele>
        <time>2020-07-29T07:08:05.789Z</time>
      </trkpt>
      <trkpt lat="61.76878" lon="5.29264">
        <ele>59.281155</ele>
        <time>2020-07-29T07:08:53.785Z</time>
      </trkpt>
      <trkpt lat="61.76832" lon="5.29198">
        <ele>55.713523</ele>
        <time>2020-07-29T07:09:59.764Z</time>
      </trkpt>
      <trkpt lat="61.76734" lon="5.29261">
        <ele>69.474505</ele>
        <time>2020-07-29T07:11:57.778Z</time>
      </trkpt>
      <trkpt lat="61.76542" lon="5.29352">
        <ele>91.550493</ele>
        <time>2020-07-29T07:14:52.779Z</time>
      </trkpt>
      <trkpt lat="61.76672" lon="5.29553">
        <ele>117.644213</ele>
        <time>2020-07-29T07:17:52.769Z</time>
      </trkpt>
      <trkpt lat="61.76778" lon="5.29925">
        <ele>142.400818</ele>
        <time>2020-07-29T07:21:00.801Z</time>
      </trkpt>
      <trkpt lat="61.76926" lon="5.30411">
        <ele>159.339924</ele>
        <time>2020-07-29T07:25:07.773Z</time>
      </trkpt>
      <trkpt lat="61.77117" lon="5.30527">
        <ele>169.540071</ele>
        <time>2020-07-29T07:27:38.775Z</time>
      </trkpt>
      <trkpt lat="61.77321" lon="5.30649">
        <ele>186.824571</ele>
        <time>2020-07-29T07:30:35.784Z</time>
      </trkpt>
      <trkpt lat="61.7751" lon="5.30779">
        <ele>203.942525</ele>
        <time>2020-07-29T07:33:43.829Z</time>
      </trkpt>
      <trkpt lat="61.77697" lon="5.3092">
        <ele>223.710863</ele>
        <time>2020-07-29T07:36:49.835Z</time>
      </trkpt>
      <trkpt lat="61.77647" lon="5.31238">
        <ele>246.968038</ele>
        <time>2020-07-29T07:39:59.792Z</time>
      </trkpt>
      <trkpt lat="61.77341" lon="5.31481">
        <ele>261.03984</ele>
        <time>2020-07-29T07:43:52.794Z</time>
      </trkpt>
      <trkpt lat="61.77391" lon="5.31847">
        <ele>273.185783</ele>
        <time>2020-07-29T07:46:39.773Z</time>
      </trkpt>
      <trkpt lat="61.77427" lon="5.32238">
        <ele>288.936237</ele>
        <time>2020-07-29T07:49:18.793Z</time>
      </trkpt>
      <trkpt lat="61.77579" lon="5.32532">
        <ele>304.729882</ele>
        <time>2020-07-29T07:52:21.805Z</time>
      </trkpt>
      <trkpt lat="61.77741" lon="5.32775">
        <ele>317.176041</ele>
        <time>2020-07-29T07:55:13.794Z</time>
      </trkpt>
      <trkpt lat="61.77869" lon="5.33145">
        <ele>317.912973</ele>
        <time>2020-07-29T07:56:05.777Z</time>
      </trkpt>
      <trkpt lat="61.78045" lon="5.33477">
        <ele>295.42879</ele>
        <time>2020-07-29T07:56:27.787Z</time>
      </trkpt>
      <trkpt lat="61.78238" lon="5.33674">
        <ele>279.921237</ele>
        <time>2020-07-29T07:56:48.778Z</time>
      </trkpt>
      <trkpt lat="61.78475" lon="5.33625">
        <ele>292.743189</ele>
        <time>2020-07-29T07:58:02.776Z</time>
      </trkpt>
      <trkpt lat="61.78709" lon="5.33726">
        <ele>295.971797</ele>
        <time>2020-07-29T07:59:48.791Z</time>
      </trkpt>
      <trkpt lat="61.78895" lon="5.33872">
        <ele>302.7759</ele>
        <time>2020-07-29T08:02:09.793Z</time>
      </trkpt>
      <trkpt lat="61.79011" lon="5.34356">
        <ele>297.733166</ele>
        <time>2020-07-29T08:02:47.788Z</time>
      </trkpt>
      <trkpt lat="61.79132" lon="5.34837">
        <ele>286.087133</ele>
        <time>2020-07-29T08:03:12.809Z</time>
      </trkpt>
      <trkpt lat="61.79172" lon="5.35299">
        <ele>285.660834</ele>
        <time>2020-07-29T08:04:30.811Z</time>
      </trkpt>
      <trkpt lat="61.79219" lon="5.35707">
        <ele>303.393589</ele>
        <time>2020-07-29T08:06:45.798Z</time>
      </trkpt>
      <trkpt lat="61.79281" lon="5.36086">
        <ele>318.482271</ele>
        <time>2020-07-29T08:09:32.795Z</time>
      </trkpt>
      <trkpt lat="61.79428" lon="5.36421">
        <ele>328.701045</ele>
        <time>2020-07-29T08:11:22.788Z</time>
      </trkpt>
      <trkpt lat="61.79623" lon="5.36695">
        <ele>330.222914</ele>
        <time>2020-07-29T08:12:34.814Z</time>
      </trkpt>
      <trkpt lat="61.79781" lon="5.36636">
        <ele>333.037595</ele>
        <time>2020-07-29T08:14:09.822Z</time>
      </trkpt>
      <trkpt lat="61.79934" lon="5.36523">
        <ele>321.420303</ele>
        <time>2020-07-29T08:15:00.779Z</time>
      </trkpt>
      <trkpt lat="61.80033" lon="5.3692">
        <ele>333.248987</ele>
        <time>2020-07-29T08:16:42.807Z</time>
      </trkpt>
      <trkpt lat="61.80163" lon="5.37359">
        <ele>329.976228</ele>
        <time>2020-07-29T08:17:27.787Z</time>
      </trkpt>
      <trkpt lat="61.80289" lon="5.37778">
        <ele>328.678222</ele>
        <time>2020-07-29T08:18:16.792Z</time>
      </trkpt>
      <trkpt lat="61.80326" lon="5.38204">
        <ele>336.924855</ele>
        <time>2020-07-29T08:19:47.797Z</time>
      </trkpt>
      <trkpt lat="61.8047" lon="5.38599">
        <ele>341.653699</ele>
        <time>2020-07-29T08:20:56.788Z</time>
      </trkpt>
      <trkpt lat="61.80537" lon="5.39089">
        <ele>341.667428</ele>
        <time>2020-07-29T08:22:00.774Z</time>
      </trkpt>
      <trkpt lat="61.80671" lon="5.3941">
        <ele>352.363691</ele>
        <time>2020-07-29T08:24:04.788Z</time>
      </trkpt>
      <trkpt lat="61.80823" lon="5.397">
        <ele>362.109607</ele>
        <time>2020-07-29T08:26:07.801Z</time>
      </trkpt>
      <trkpt lat="61.80958" lon="5.40017">
        <ele>377.887919</ele>
        <time>2020-07-29T08:28:34.803Z</time>
      </trkpt>
      <trkpt lat="61.8111" lon="5.40321">
        <ele>391.772199</ele>
        <time>2020-07-29T08:31:17.805Z</time>
      </trkpt>
      <trkpt lat="61.81252" lon="5.40644">
        <ele>398.104452</ele>
        <time>2020-07-29T08:33:30.796Z</time>
      </trkpt>
      <trkpt lat="61.81414" lon="5.40925">
        <ele>402.427044</ele>
        <time>2020-07-29T08:34:41.772Z</time>
      </trkpt>
      <trkpt lat="61.81588" lon="5.41217">
        <ele>406.014398</ele>
        <time>2020-07-29T08:36:19.793Z</time>
      </trkpt>
      <trkpt lat="61.81763" lon="5.41446">
        <ele>411.774812</ele>
        <time>2020-07-29T08:37:56.809Z</time>
      </trkpt>
      <trkpt lat="61.81906" lon="5.41748">
        <ele>424.768482</ele>
        <time>2020-07-29T08:40:16.805Z</time>
      </trkpt>
      <trkpt lat="61.82087" lon="5.41982">
        <ele>428.764632</ele>
        <time>2020-07-29T08:42:25.815Z</time>
      </trkpt>
      <trkpt lat="61.82356" lon="5.41962">
        <ele>419.314583</ele>
        <time>2020-07-29T08:47:47.782Z</time>
      </trkpt>
      <trkpt lat="61.82555" lon="5.42219">
        <ele>422.252996</ele>
        <time>2020-07-29T08:48:31.792Z</time>
      </trkpt>
      <trkpt lat="61.82611" lon="5.42706">
        <ele>426.595518</ele>
        <time>2020-07-29T08:49:23.834Z</time>
      </trkpt>
      <trkpt lat="61.827" lon="5.43182">
        <ele>427.118882</ele>
        <time>2020-07-29T08:50:26.803Z</time>
      </trkpt>
      <trkpt lat="61.82784" lon="5.43621">
        <ele>427.084629</ele>
        <time>2020-07-29T08:51:09.827Z</time>
      </trkpt>
      <trkpt lat="61.82898" lon="5.44073">
        <ele>423.846219</ele>
        <time>2020-07-29T08:51:51.801Z</time>
      </trkpt>
      <trkpt lat="61.8297" lon="5.4454">
        <ele>435.566791</ele>
        <time>2020-07-29T08:53:09.810Z</time>
      </trkpt>
      <trkpt lat="61.83048" lon="5.44936">
        <ele>442.686939</ele>
        <time>2020-07-29T08:55:07.773Z</time>
      </trkpt>
      <trkpt lat="61.83107" lon="5.45406">
        <ele>440.272018</ele>
        <time>2020-07-29T08:56:07.789Z</time>
      </trkpt>
      <trkpt lat="61.83247" lon="5.45856">
        <ele>429.804881</ele>
        <time>2020-07-29T08:56:40.791Z</time>
      </trkpt>
      <trkpt lat="61.83322" lon="5.46365">
        <ele>421.645856</ele>
        <time>2020-07-29T08:57:13.809Z</time>
      </trkpt>
      <trkpt lat="61.83345" lon="5.46869">
        <ele>420.508377</ele>
        <time>2020-07-29T08:58:00.788Z</time>
      </trkpt>
      <trkpt lat="61.83373" lon="5.47441">
        <ele>415.37328</ele>
        <time>2020-07-29T08:58:54.796Z</time>
      </trkpt>
      <trkpt lat="61.8331" lon="5.47952">
        <ele>417.964226</ele>
        <time>2020-07-29T09:00:24.805Z</time>
      </trkpt>
      <trkpt lat="61.83218" lon="5.48434">
        <ele>418.001425</ele>
        <time>2020-07-29T09:01:26.800Z</time>
      </trkpt>
      <trkpt lat="61.83132" lon="5.48888">
        <ele>404.655664</ele>
        <time>2020-07-29T09:01:48.813Z</time>
      </trkpt>
      <trkpt lat="61.83033" lon="5.494">
        <ele>394.418027</ele>
        <time>2020-07-29T09:02:21.789Z</time>
      </trkpt>
      <trkpt lat="61.82935" lon="5.49912">
        <ele>382.072887</ele>
        <time>2020-07-29T09:02:42.791Z</time>
      </trkpt>
      <trkpt lat="61.82877" lon="5.5048">
        <ele>365.862913</ele>
        <time>2020-07-29T09:03:03.789Z</time>
      </trkpt>
      <trkpt lat="61.82906" lon="5.51108">
        <ele>348.428</ele>
        <time>2020-07-29T09:03:25.788Z</time>
      </trkpt>
      <trkpt lat="61.8286" lon="5.51728">
        <ele>325.824729</ele>
        <time>2020-07-29T09:03:46.788Z</time>
      </trkpt>
      <trkpt lat="61.82907" lon="5.52167">
        <ele>333.838319</ele>
        <time>2020-07-29T09:04:51.805Z</time>
      </trkpt>
      <trkpt lat="61.83024" lon="5.52629">
        <ele>340.940217</ele>
        <time>2020-07-29T09:06:06.800Z</time>
      </trkpt>
      <trkpt lat="61.83064" lon="5.53091">
        <ele>342.624364</ele>
        <time>2020-07-29T09:07:06.787Z</time>
      </trkpt>
      <trkpt lat="61.8312" lon="5.53601">
        <ele>333.737862</ele>
        <time>2020-07-29T09:07:35.791Z</time>
      </trkpt>
      <trkpt lat="61.8317" lon="5.54126">
        <ele>325.631008</ele>
        <time>2020-07-29T09:08:16.805Z</time>
      </trkpt>
      <trkpt lat="61.8325" lon="5.54672">
        <ele>323.015303</ele>
        <time>2020-07-29T09:08:58.832Z</time>
      </trkpt>
      <trkpt lat="61.83272" lon="5.55174">
        <ele>328.620345</ele>
        <time>2020-07-29T09:09:46.793Z</time>
      </trkpt>
      <trkpt lat="61.83338" lon="5.55703">
        <ele>332.460192</ele>
        <time>2020-07-29T09:10:30.807Z</time>
      </trkpt>
      <trkpt lat="61.83293" lon="5.56249">
        <ele>316.108725</ele>
        <time>2020-07-29T09:11:12.820Z</time>
      </trkpt>
      <trkpt lat="61.83241" lon="5.56789">
        <ele>304.704815</ele>
        <time>2020-07-29T09:11:48.794Z</time>
      </trkpt>
      <trkpt lat="61.83219" lon="5.57319">
        <ele>297.561537</ele>
        <time>2020-07-29T09:12:14.801Z</time>
      </trkpt>
      <trkpt lat="61.8333" lon="5.57762">
        <ele>306.685326</ele>
        <time>2020-07-29T09:13:15.789Z</time>
      </trkpt>
      <trkpt lat="61.83439" lon="5.5822">
        <ele>312.110223</ele>
        <time>2020-07-29T09:14:16.812Z</time>
      </trkpt>
      <trkpt lat="61.8344" lon="5.58738">
        <ele>300.321361</ele>
        <time>2020-07-29T09:14:47.795Z</time>
      </trkpt>
      <trkpt lat="61.8337" lon="5.59253">
        <ele>295.202534</ele>
        <time>2020-07-29T09:15:25.788Z</time>
      </trkpt>
      <trkpt lat="61.83376" lon="5.59767">
        <ele>296.471329</ele>
        <time>2020-07-29T09:16:25.811Z</time>
      </trkpt>
      <trkpt lat="61.83416" lon="5.60282">
        <ele>288.508903</ele>
        <time>2020-07-29T09:16:51.811Z</time>
      </trkpt>
      <trkpt lat="61.83468" lon="5.6082">
        <ele>271.599939</ele>
        <time>2020-07-29T09:17:15.797Z</time>
      </trkpt>
      <trkpt lat="61.83507" lon="5.61281">
        <ele>260.461594</ele>
        <time>2020-07-29T09:17:57.802Z</time>
      </trkpt>
      <trkpt lat="61.83546" lon="5.61787">
        <ele>255.994718</ele>
        <time>2020-07-29T09:18:25.805Z</time>
      </trkpt>
      <trkpt lat="61.83598" lon="5.62512">
        <ele>250.187011</ele>
        <time>2020-07-29T09:22:40.810Z</time>
      </trkpt>
      <trkpt lat="61.83552" lon="5.63039">
        <ele>250.531493</ele>
        <time>2020-07-29T09:23:28.806Z</time>
      </trkpt>
      <trkpt lat="61.83578" lon="5.63545">
        <ele>246.537507</ele>
        <time>2020-07-29T09:24:10.796Z</time>
      </trkpt>
      <trkpt lat="61.83625" lon="5.64116">
        <ele>230.126111</ele>
        <time>2020-07-29T09:24:51.806Z</time>
      </trkpt>
      <trkpt lat="61.83595" lon="5.6459">
        <ele>220.946836</ele>
        <time>2020-07-29T09:25:13.838Z</time>
      </trkpt>
      <trkpt lat="61.83609" lon="5.65112">
        <ele>206.068221</ele>
        <time>2020-07-29T09:25:40.795Z</time>
      </trkpt>
      <trkpt lat="61.83673" lon="5.65657">
        <ele>182.364421</ele>
        <time>2020-07-29T09:26:19.801Z</time>
      </trkpt>
      <trkpt lat="61.83826" lon="5.66158">
        <ele>148.472661</ele>
        <time>2020-07-29T09:27:00.816Z</time>
      </trkpt>
      <trkpt lat="61.83884" lon="5.66736">
        <ele>111.349332</ele>
        <time>2020-07-29T09:27:43.796Z</time>
      </trkpt>
      <trkpt lat="61.8375" lon="5.67076">
        <ele>81.828071</ele>
        <time>2020-07-29T09:28:37.818Z</time>
      </trkpt>
      <trkpt lat="61.83887" lon="5.67548">
        <ele>73.051158</ele>
        <time>2020-07-29T09:29:23.815Z</time>
      </trkpt>
      <trkpt lat="61.83922" lon="5.67921">
        <ele>56.247722</ele>
        <time>2020-07-29T09:30:21.793Z</time>
      </trkpt>
      <trkpt lat="61.84022" lon="5.68346">
        <ele>53.275652</ele>
        <time>2020-07-29T09:31:13.801Z</time>
      </trkpt>
      <trkpt lat="61.84148" lon="5.68813">
        <ele>57.205884</ele>
        <time>2020-07-29T09:32:18.804Z</time>
      </trkpt>
      <trkpt lat="61.84264" lon="5.69243">
        <ele>62.854264</ele>
        <time>2020-07-29T09:33:20.798Z</time>
      </trkpt>
      <trkpt lat="61.84344" lon="5.69648">
        <ele>75.482082</ele>
        <time>2020-07-29T09:35:07.792Z</time>
      </trkpt>
      <trkpt lat="61.8438" lon="5.70078">
        <ele>86.115828</ele>
        <time>2020-07-29T09:37:15.802Z</time>
      </trkpt>
      <trkpt lat="61.84422" lon="5.70538">
        <ele>94.235446</ele>
        <time>2020-07-29T09:38:43.805Z</time>
      </trkpt>
      <trkpt lat="61.84474" lon="5.7101">
        <ele>89.829622</ele>
        <time>2020-07-29T09:40:04.809Z</time>
      </trkpt>
      <trkpt lat="61.84574" lon="5.71406">
        <ele>96.585401</ele>
        <time>2020-07-29T09:41:45.805Z</time>
      </trkpt>
      <trkpt lat="61.84721" lon="5.71778">
        <ele>100.103069</ele>
        <time>2020-07-29T09:43:11.826Z</time>
      </trkpt>
      <trkpt lat="61.8479" lon="5.72168">
        <ele>112.050097</ele>
        <time>2020-07-29T09:45:15.824Z</time>
      </trkpt>
      <trkpt lat="61.86356" lon="5.73176">
        <ele>74.726248</ele>
        <time>2020-07-29T09:50:58.825Z</time>
      </trkpt>
      <trkpt lat="61.86615" lon="5.73001">
        <ele>52.32572</ele>
        <time>2020-07-29T09:51:20.811Z</time>
      </trkpt>
      <trkpt lat="61.86868" lon="5.72896">
        <ele>51.466244</ele>
        <time>2020-07-29T09:51:54.816Z</time>
      </trkpt>
      <trkpt lat="61.87062" lon="5.72643">
        <ele>51.50398</ele>
        <time>2020-07-29T09:52:48.831Z</time>
      </trkpt>
      <trkpt lat="61.87279" lon="5.72332">
        <ele>53.400811</ele>
        <time>2020-07-29T09:53:53.817Z</time>
      </trkpt>
      <trkpt lat="61.87453" lon="5.72079">
        <ele>55.813178</ele>
        <time>2020-07-29T09:54:56.808Z</time>
      </trkpt>
      <trkpt lat="61.87649" lon="5.71834">
        <ele>59.195677</ele>
        <time>2020-07-29T09:56:04.806Z</time>
      </trkpt>
      <trkpt lat="61.87851" lon="5.71647">
        <ele>61.342633</ele>
        <time>2020-07-29T09:57:30.823Z</time>
      </trkpt>
      <trkpt lat="61.88079" lon="5.71543">
        <ele>55.179829</ele>
        <time>2020-07-29T09:58:29.837Z</time>
      </trkpt>
      <trkpt lat="61.91403" lon="5.72514">
        <ele>62.51615</ele>
        <time>2020-07-29T10:39:08.813Z</time>
      </trkpt>
      <trkpt lat="61.91501" lon="5.72945">
        <ele>56.970743</ele>
        <time>2020-07-29T10:41:30.825Z</time>
      </trkpt>
      <trkpt lat="61.91469" lon="5.72561">
        <ele>66.90256</ele>
        <time>2020-07-29T10:43:14.828Z</time>
      </trkpt>
      <trkpt lat="61.91358" lon="5.72187">
        <ele>77.302524</ele>
        <time>2020-07-29T10:45:00.825Z</time>
      </trkpt>
      <trkpt lat="61.91303" lon="5.71773">
        <ele>81.418314</ele>
        <time>2020-07-29T10:46:42.813Z</time>
      </trkpt>
      <trkpt lat="61.91431" lon="5.71359">
        <ele>78.30568</ele>
        <time>2020-07-29T10:47:45.816Z</time>
      </trkpt>
      <trkpt lat="61.91473" lon="5.70928">
        <ele>82.892526</ele>
        <time>2020-07-29T10:48:52.827Z</time>
      </trkpt>
      <trkpt lat="61.9142" lon="5.7049">
        <ele>87.168243</ele>
        <time>2020-07-29T10:50:00.826Z</time>
      </trkpt>
      <trkpt lat="61.91334" lon="5.70012">
        <ele>85.657321</ele>
        <time>2020-07-29T10:51:06.820Z</time>
      </trkpt>
      <trkpt lat="61.9127" lon="5.69541">
        <ele>88.088801</ele>
        <time>2020-07-29T10:52:09.823Z</time>
      </trkpt>
      <trkpt lat="61.91229" lon="5.69073">
        <ele>86.777876</ele>
        <time>2020-07-29T10:52:55.818Z</time>
      </trkpt>
      <trkpt lat="61.91176" lon="5.68636">
        <ele>81.836626</ele>
        <time>2020-07-29T10:53:38.818Z</time>
      </trkpt>
      <trkpt lat="61.91246" lon="5.68122">
        <ele>84.835671</ele>
        <time>2020-07-29T10:54:45.817Z</time>
      </trkpt>
      <trkpt lat="61.91362" lon="5.67747">
        <ele>88.665725</ele>
        <time>2020-07-29T10:55:55.821Z</time>
      </trkpt>
      <trkpt lat="61.91493" lon="5.67329">
        <ele>85.984528</ele>
        <time>2020-07-29T10:56:58.863Z</time>
      </trkpt>
      <trkpt lat="61.91603" lon="5.66806">
        <ele>84.852974</ele>
        <time>2020-07-29T10:58:04.834Z</time>
      </trkpt>
      <trkpt lat="61.91553" lon="5.6634">
        <ele>81.304533</ele>
        <time>2020-07-29T10:58:52.831Z</time>
      </trkpt>
      <trkpt lat="61.91481" lon="5.65786">
        <ele>69.115008</ele>
        <time>2020-07-29T10:59:25.815Z</time>
      </trkpt>
      <trkpt lat="61.91457" lon="5.65302">
        <ele>61.635223</ele>
        <time>2020-07-29T10:59:48.841Z</time>
      </trkpt>
      <trkpt lat="61.9141" lon="5.64778">
        <ele>57.081138</ele>
        <time>2020-07-29T11:00:34.811Z</time>
      </trkpt>
      <trkpt lat="61.91495" lon="5.64359">
        <ele>65.799625</ele>
        <time>2020-07-29T11:01:52.808Z</time>
      </trkpt>
      <trkpt lat="61.91561" lon="5.6393">
        <ele>84.791103</ele>
        <time>2020-07-29T11:04:35.809Z</time>
      </trkpt>
      <trkpt lat="61.91638" lon="5.63498">
        <ele>86.686919</ele>
        <time>2020-07-29T11:06:18.848Z</time>
      </trkpt>
      <trkpt lat="61.91669" lon="5.62965">
        <ele>63.23898</ele>
        <time>2020-07-29T11:07:09.820Z</time>
      </trkpt>
      <trkpt lat="61.91706" lon="5.62528">
        <ele>57.516474</ele>
        <time>2020-07-29T11:07:54.843Z</time>
      </trkpt>
      <trkpt lat="61.91836" lon="5.62147">
        <ele>62.345939</ele>
        <time>2020-07-29T11:08:55.825Z</time>
      </trkpt>
      <trkpt lat="61.91909" lon="5.61678">
        <ele>67.35337</ele>
        <time>2020-07-29T11:10:02.842Z</time>
      </trkpt>
      <trkpt lat="61.92337" lon="5.60297">
        <ele>60.344905</ele>
        <time>2020-07-29T11:13:27.826Z</time>
      </trkpt>
      <trkpt lat="61.92369" lon="5.59779">
        <ele>61.928017</ele>
        <time>2020-07-29T11:14:27.817Z</time>
      </trkpt>
      <trkpt lat="61.92239" lon="5.59364">
        <ele>61.331687</ele>
        <time>2020-07-29T11:15:12.849Z</time>
      </trkpt>
      <trkpt lat="61.92202" lon="5.58899">
        <ele>63.368097</ele>
        <time>2020-07-29T11:16:12.828Z</time>
      </trkpt>
      <trkpt lat="61.92225" lon="5.58432">
        <ele>62.76212</ele>
        <time>2020-07-29T11:16:56.821Z</time>
      </trkpt>
      <trkpt lat="61.92259" lon="5.57942">
        <ele>59.087867</ele>
        <time>2020-07-29T11:17:38.830Z</time>
      </trkpt>
      <trkpt lat="61.92262" lon="5.57429">
        <ele>58.634506</ele>
        <time>2020-07-29T11:18:26.819Z</time>
      </trkpt>
      <trkpt lat="61.92265" lon="5.56952">
        <ele>68.254446</ele>
        <time>2020-07-29T11:19:33.806Z</time>
      </trkpt>
      <trkpt lat="61.92293" lon="5.56458">
        <ele>67.083135</ele>
        <time>2020-07-29T11:20:36.820Z</time>
      </trkpt>
      <trkpt lat="61.92278" lon="5.56009">
        <ele>64.439594</ele>
        <time>2020-07-29T11:21:38.835Z</time>
      </trkpt>
      <trkpt lat="61.92734" lon="5.53765">
        <ele>69.983912</ele>
        <time>2020-07-29T11:30:57.816Z</time>
      </trkpt>
      <trkpt lat="61.92787" lon="5.53178">
        <ele>67.481842</ele>
        <time>2020-07-29T11:31:43.811Z</time>
      </trkpt>
      <trkpt lat="61.92735" lon="5.52651">
        <ele>59.600096</ele>
        <time>2020-07-29T11:32:25.819Z</time>
      </trkpt>
      <trkpt lat="61.92646" lon="5.52234">
        <ele>58.797351</ele>
        <time>2020-07-29T11:33:09.817Z</time>
      </trkpt>
      <trkpt lat="61.92629" lon="5.51796">
        <ele>61.346298</ele>
        <time>2020-07-29T11:33:54.838Z</time>
      </trkpt>
      <trkpt lat="61.92685" lon="5.51342">
        <ele>62.285047</ele>
        <time>2020-07-29T11:34:56.852Z</time>
      </trkpt>
      <trkpt lat="61.92843" lon="5.5103">
        <ele>55.254334</ele>
        <time>2020-07-29T11:35:47.837Z</time>
      </trkpt>
      <trkpt lat="61.93039" lon="5.50787">
        <ele>53.621143</ele>
        <time>2020-07-29T11:36:31.838Z</time>
      </trkpt>
      <trkpt lat="61.93221" lon="5.50484">
        <ele>53.487331</ele>
        <time>2020-07-29T11:37:22.828Z</time>
      </trkpt>
      <trkpt lat="61.93322" lon="5.50044">
        <ele>56.82136</ele>
        <time>2020-07-29T11:38:18.838Z</time>
      </trkpt>
      <trkpt lat="61.9323" lon="5.49596">
        <ele>54.522266</ele>
        <time>2020-07-29T11:39:02.830Z</time>
      </trkpt>
      <trkpt lat="61.93082" lon="5.4928">
        <ele>56.434025</ele>
        <time>2020-07-29T11:39:47.828Z</time>
      </trkpt>
      <trkpt lat="61.92905" lon="5.49002">
        <ele>57.30159</ele>
        <time>2020-07-29T11:40:37.836Z</time>
      </trkpt>
      <trkpt lat="61.92785" lon="5.48526">
        <ele>57.394671</ele>
        <time>2020-07-29T11:41:38.845Z</time>
      </trkpt>
      <trkpt lat="61.92803" lon="5.47979">
        <ele>57.636202</ele>
        <time>2020-07-29T11:42:44.855Z</time>
      </trkpt>
      <trkpt lat="61.92773" lon="5.47495">
        <ele>53.523266</ele>
        <time>2020-07-29T11:43:39.821Z</time>
      </trkpt>
      <trkpt lat="61.92774" lon="5.47082">
        <ele>52.65404</ele>
        <time>2020-07-29T11:44:22.842Z</time>
      </trkpt>
      <trkpt lat="61.92725" lon="5.46545">
        <ele>53.090455</ele>
        <time>2020-07-29T11:45:23.819Z</time>
      </trkpt>
      <trkpt lat="61.92708" lon="5.46059">
        <ele>57.407086</ele>
        <time>2020-07-29T11:46:33.844Z</time>
      </trkpt>
      <trkpt lat="61.92841" lon="5.45739">
        <ele>56.304064</ele>
        <time>2020-07-29T11:47:33.832Z</time>
      </trkpt>
      <trkpt lat="61.93075" lon="5.45767">
        <ele>61.036594</ele>
        <time>2020-07-29T11:48:54.830Z</time>
      </trkpt>
      <trkpt lat="61.93281" lon="5.45722">
        <ele>73.525155</ele>
        <time>2020-07-29T11:50:29.814Z</time>
      </trkpt>
      <trkpt lat="61.93459" lon="5.46024">
        <ele>69.692426</ele>
        <time>2020-07-29T11:51:15.848Z</time>
      </trkpt>
      <trkpt lat="61.93688" lon="5.46335">
        <ele>60.635341</ele>
        <time>2020-07-29T11:51:59.844Z</time>
      </trkpt>
      <trkpt lat="61.93907" lon="5.46216">
        <ele>62.341788</ele>
        <time>2020-07-29T11:52:58.836Z</time>
      </trkpt>
      <trkpt lat="61.94035" lon="5.45862">
        <ele>68.298765</ele>
        <time>2020-07-29T11:54:13.837Z</time>
      </trkpt>
      <trkpt lat="61.94143" lon="5.45467">
        <ele>71.489305</ele>
        <time>2020-07-29T11:55:40.852Z</time>
      </trkpt>
      <trkpt lat="61.94276" lon="5.45329">
        <ele>80.976158</ele>
        <time>2020-07-29T11:57:41.852Z</time>
      </trkpt>
      <trkpt lat="61.94412" lon="5.4565">
        <ele>98.03555</ele>
        <time>2020-07-29T11:59:55.892Z</time>
      </trkpt>
      <trkpt lat="61.94585" lon="5.45921">
        <ele>100.532031</ele>
        <time>2020-07-29T12:01:23.822Z</time>
      </trkpt>
      <trkpt lat="61.94715" lon="5.46307">
        <ele>105.192671</ele>
        <time>2020-07-29T12:02:51.832Z</time>
      </trkpt>
      <trkpt lat="61.94713" lon="5.46744">
        <ele>115.70763</ele>
        <time>2020-07-29T12:04:53.838Z</time>
      </trkpt>
      <trkpt lat="61.94787" lon="5.47146">
        <ele>127.332264</ele>
        <time>2020-07-29T12:06:57.833Z</time>
      </trkpt>
      <trkpt lat="61.94869" lon="5.4757">
        <ele>142.532113</ele>
        <time>2020-07-29T12:09:08.862Z</time>
      </trkpt>
      <trkpt lat="61.94973" lon="5.47932">
        <ele>152.727818</ele>
        <time>2020-07-29T12:11:18.821Z</time>
      </trkpt>
      <trkpt lat="61.95136" lon="5.48148">
        <ele>162.429979</ele>
        <time>2020-07-29T12:13:06.893Z</time>
      </trkpt>
      <trkpt lat="61.95326" lon="5.48373">
        <ele>172.464425</ele>
        <time>2020-07-29T12:15:05.815Z</time>
      </trkpt>
      <trkpt lat="61.95456" lon="5.48726">
        <ele>175.172527</ele>
        <time>2020-07-29T12:16:52.827Z</time>
      </trkpt>
      <trkpt lat="61.95581" lon="5.49092">
        <ele>176.438149</ele>
        <time>2020-07-29T12:18:06.872Z</time>
      </trkpt>
      <trkpt lat="61.95753" lon="5.49336">
        <ele>181.13443</ele>
        <time>2020-07-29T12:19:19.823Z</time>
      </trkpt>
      <trkpt lat="61.96036" lon="5.49525">
        <ele>180.266939</ele>
        <time>2020-07-29T12:25:33.865Z</time>
      </trkpt>
      <trkpt lat="61.96134" lon="5.49933">
        <ele>177.15093</ele>
        <time>2020-07-29T12:26:38.839Z</time>
      </trkpt>
      <trkpt lat="61.9623" lon="5.50393">
        <ele>178.633807</ele>
        <time>2020-07-29T12:27:38.862Z</time>
      </trkpt>
      <trkpt lat="61.9643" lon="5.50611">
        <ele>177.926713</ele>
        <time>2020-07-29T12:28:46.832Z</time>
      </trkpt>
      <trkpt lat="61.96651" lon="5.50796">
        <ele>179.442912</ele>
        <time>2020-07-29T12:29:49.829Z</time>
      </trkpt>
      <trkpt lat="61.96863" lon="5.50894">
        <ele>193.441449</ele>
        <time>2020-07-29T12:31:17.847Z</time>
      </trkpt>
      <trkpt lat="61.97057" lon="5.51059">
        <ele>210.711271</ele>
        <time>2020-07-29T12:33:53.843Z</time>
      </trkpt>
      <trkpt lat="61.97244" lon="5.51185">
        <ele>224.532602</ele>
        <time>2020-07-29T12:36:36.864Z</time>
      </trkpt>
      <trkpt lat="61.97385" lon="5.51485">
        <ele>238.633677</ele>
        <time>2020-07-29T12:39:20.846Z</time>
      </trkpt>
      <trkpt lat="61.97579" lon="5.51519">
        <ele>253.600884</ele>
        <time>2020-07-29T12:41:57.849Z</time>
      </trkpt>
      <trkpt lat="61.97691" lon="5.51176">
        <ele>254.168666</ele>
        <time>2020-07-29T12:47:20.836Z</time>
      </trkpt>
      <trkpt lat="61.97836" lon="5.50838">
        <ele>256.116583</ele>
        <time>2020-07-29T12:48:22.835Z</time>
      </trkpt>
      <trkpt lat="61.97954" lon="5.50479">
        <ele>265.624459</ele>
        <time>2020-07-29T12:50:18.841Z</time>
      </trkpt>
      <trkpt lat="61.98153" lon="5.50596">
        <ele>272.626445</ele>
        <time>2020-07-29T12:52:24.836Z</time>
      </trkpt>
      <trkpt lat="61.98316" lon="5.5064">
        <ele>283.732401</ele>
        <time>2020-07-29T12:54:21.847Z</time>
      </trkpt>
      <trkpt lat="61.98345" lon="5.50199">
        <ele>283.112997</ele>
        <time>2020-07-29T12:55:10.844Z</time>
      </trkpt>
      <trkpt lat="61.986" lon="5.50113">
        <ele>280.272481</ele>
        <time>2020-07-29T12:56:14.859Z</time>
      </trkpt>
      <trkpt lat="61.98796" lon="5.50364">
        <ele>280.171746</ele>
        <time>2020-07-29T12:57:06.833Z</time>
      </trkpt>
      <trkpt lat="61.98987" lon="5.50661">
        <ele>279.110151</ele>
        <time>2020-07-29T12:57:55.851Z</time>
      </trkpt>
      <trkpt lat="61.99157" lon="5.51">
        <ele>282.028136</ele>
        <time>2020-07-29T12:58:49.868Z</time>
      </trkpt>
      <trkpt lat="61.99318" lon="5.51334">
        <ele>281.159585</ele>
        <time>2020-07-29T12:59:37.850Z</time>
      </trkpt>
      <trkpt lat="61.99537" lon="5.51433">
        <ele>279.016949</ele>
        <time>2020-07-29T13:00:25.856Z</time>
      </trkpt>
      <trkpt lat="61.99758" lon="5.51413">
        <ele>281.407798</ele>
        <time>2020-07-29T13:01:18.862Z</time>
      </trkpt>
      <trkpt lat="61.99976" lon="5.51523">
        <ele>285.13526</ele>
        <time>2020-07-29T13:02:29.844Z</time>
      </trkpt>
      <trkpt lat="62.00143" lon="5.51752">
        <ele>288.960146</ele>
        <time>2020-07-29T13:03:33.848Z</time>
      </trkpt>
      <trkpt lat="62.00323" lon="5.51995">
        <ele>289.314973</ele>
        <time>2020-07-29T13:04:33.863Z</time>
      </trkpt>
      <trkpt lat="62.00521" lon="5.52246">
        <ele>287.265786</ele>
        <time>2020-07-29T13:05:20.838Z</time>
      </trkpt>
      <trkpt lat="62.00712" lon="5.52544">
        <ele>285.191979</ele>
        <time>2020-07-29T13:06:02.838Z</time>
      </trkpt>
      <trkpt lat="62.00862" lon="5.52948">
        <ele>282.490526</ele>
        <time>2020-07-29T13:06:47.837Z</time>
      </trkpt>
      <trkpt lat="62.01036" lon="5.53255">
        <ele>281.287926</ele>
        <time>2020-07-29T13:07:34.881Z</time>
      </trkpt>
      <trkpt lat="62.01287" lon="5.53386">
        <ele>263.54397</ele>
        <time>2020-07-29T13:08:08.839Z</time>
      </trkpt>
      <trkpt lat="62.01391" lon="5.53694">
        <ele>240.246549</ele>
        <time>2020-07-29T13:08:37.836Z</time>
      </trkpt>
      <trkpt lat="62.01596" lon="5.53865">
        <ele>222.651301</ele>
        <time>2020-07-29T13:09:06.852Z</time>
      </trkpt>
      <trkpt lat="62.01733" lon="5.53521">
        <ele>202.793303</ele>
        <time>2020-07-29T13:09:28.837Z</time>
      </trkpt>
      <trkpt lat="62.01842" lon="5.53529">
        <ele>176.255411</ele>
        <time>2020-07-29T13:10:08.855Z</time>
      </trkpt>
      <trkpt lat="62.02034" lon="5.5355">
        <ele>156.451086</ele>
        <time>2020-07-29T13:10:50.850Z</time>
      </trkpt>
      <trkpt lat="62.02249" lon="5.5334">
        <ele>135.142466</ele>
        <time>2020-07-29T13:11:22.863Z</time>
      </trkpt>
      <trkpt lat="62.02487" lon="5.53104">
        <ele>103.128289</ele>
        <time>2020-07-29T13:12:02.853Z</time>
      </trkpt>
      <trkpt lat="62.02665" lon="5.52974">
        <ele>82.34664</ele>
        <time>2020-07-29T13:12:30.856Z</time>
      </trkpt>
      <trkpt lat="62.02855" lon="5.52919">
        <ele>65.557505</ele>
        <time>2020-07-29T13:12:52.851Z</time>
      </trkpt>
      <trkpt lat="62.03077" lon="5.52789">
        <ele>49.244193</ele>
        <time>2020-07-29T13:13:14.834Z</time>
      </trkpt>
      <trkpt lat="62.03335" lon="5.52727">
        <ele>43.546834</ele>
        <time>2020-07-29T13:13:44.846Z</time>
      </trkpt>
      <trkpt lat="62.03541" lon="5.53008">
        <ele>52.772852</ele>
        <time>2020-07-29T13:14:38.831Z</time>
      </trkpt>
      <trkpt lat="62.03724" lon="5.52916">
        <ele>56.836611</ele>
        <time>2020-07-29T13:15:38.867Z</time>
      </trkpt>
      <trkpt lat="62.03869" lon="5.5249">
        <ele>59.019765</ele>
        <time>2020-07-29T13:16:41.832Z</time>
      </trkpt>
    </trkseg>
  </trk>
</gpx>